createdAt,value
2023-04-19T00:03:15.161Z,14.63
2023-04-19T00:08:17.452Z,14.55
2023-04-19T00:13:19.735Z,14.35
2023-04-19T00:18:22.062Z,14.47
2023-04-19T00:23:24.195Z,14.34
2023-04-19T00:28:26.570Z,14.40
2023-04-19T00:33:28.804Z,14.60
2023-04-19T00:38:31.173Z,14.61
2023-04-19T00:43:33.334Z,14.62
2023-04-19T00:48:38.531Z,14.49
2023-04-19T00:53:41.573Z,14.25
2023-04-19T00:58:43.871Z,13.79
2023-04-19T01:03:47.256Z,14.12
2023-04-19T01:08:49.824Z,14.16
2023-04-19T01:13:52.287Z,14.11
2023-04-19T01:18:54.634Z,14.14
2023-04-19T01:23:56.770Z,14.00
2023-04-19T01:28:58.939Z,14.00
2023-04-19T01:34:01.121Z,14.17
2023-04-19T01:39:03.335Z,14.11
2023-04-19T01:44:05.486Z,14.15
2023-04-19T01:49:08.175Z,14.03
2023-04-19T01:54:10.265Z,14.01
2023-04-19T01:59:12.486Z,14.17
2023-04-19T02:04:14.894Z,14.24
2023-04-19T02:09:17.291Z,14.37
2023-04-19T02:14:19.537Z,14.41
2023-04-19T02:19:21.637Z,14.57
2023-04-19T02:24:25.023Z,14.43
2023-04-19T02:29:27.353Z,14.49
2023-04-19T02:34:29.484Z,14.49
2023-04-19T02:39:31.817Z,14.48
2023-04-19T02:44:33.980Z,14.64
2023-04-19T02:49:38.321Z,14.58
2023-04-19T02:54:40.489Z,14.56
2023-04-19T02:59:42.619Z,14.50
2023-04-19T03:04:44.771Z,14.47
2023-04-19T03:09:46.917Z,14.54
2023-04-19T03:14:49.871Z,14.25
2023-04-19T03:19:52.885Z,14.20
2023-04-19T03:24:54.952Z,14.22
2023-04-19T03:29:57.731Z,14.20
2023-04-19T03:34:59.818Z,14.04
2023-04-19T03:40:02.162Z,14.42
2023-04-19T03:45:04.757Z,14.35
2023-04-19T03:50:07.317Z,14.32
2023-04-19T03:55:10.366Z,14.42
2023-04-19T04:00:13.600Z,14.31
2023-04-19T04:05:16.259Z,14.41
2023-04-19T04:10:18.494Z,14.45
2023-04-19T04:15:20.732Z,14.42
2023-04-19T04:20:22.940Z,14.51
2023-04-19T04:25:26.332Z,14.36
2023-04-19T04:30:29.022Z,14.48
2023-04-19T04:35:31.237Z,14.35
2023-04-19T04:40:33.942Z,14.45
2023-04-19T04:45:36.171Z,14.48
2023-04-19T04:50:38.448Z,14.47
2023-04-19T04:55:40.593Z,14.67
2023-04-19T05:00:42.795Z,14.84
2023-04-19T05:05:45.353Z,14.80
2023-04-19T05:10:47.790Z,14.79
2023-04-19T05:15:49.971Z,14.75
2023-04-19T05:20:52.251Z,15.04
2023-04-19T05:25:54.420Z,15.10
2023-04-19T06:52:31.563Z,16.35
2023-04-19T06:57:33.910Z,16.43
2023-04-19T07:02:36.449Z,16.77
2023-04-19T07:07:38.818Z,16.92
2023-04-19T07:12:41.053Z,17.41
2023-04-19T07:17:43.254Z,17.31
2023-04-19T07:22:45.436Z,17.44
2023-04-19T07:27:47.646Z,17.65
2023-04-19T07:32:52.118Z,17.83
2023-04-19T07:37:54.468Z,18.27
2023-04-19T07:42:57.212Z,18.46
2023-04-19T07:47:59.458Z,18.75
2023-04-19T07:53:01.679Z,18.85
2023-04-19T07:58:07.491Z,18.77
2023-04-19T08:03:09.991Z,18.82
2023-04-19T08:08:12.930Z,18.85
2023-04-19T08:13:15.448Z,18.90
2023-04-19T08:18:17.649Z,18.97
2023-04-19T08:23:25.771Z,19.38
2023-04-19T08:28:30.092Z,19.80
2023-04-19T08:33:32.265Z,19.86
2023-04-19T08:38:34.557Z,20.01
2023-04-19T08:43:39.879Z,20.11
2023-04-19T08:48:45.524Z,19.78
2023-04-19T08:53:50.122Z,19.72
2023-04-19T09:04:10.439Z,20.33
2023-04-19T09:14:30.067Z,20.71
2023-04-19T09:19:47.099Z,20.65
2023-04-19T09:29:58.802Z,20.80
2023-04-19T09:35:01.295Z,20.63
2023-04-19T09:40:22.952Z,20.85
2023-04-19T09:50:31.882Z,20.62
2023-04-19T09:55:48.850Z,21.09
2023-04-19T10:01:13.511Z,20.89
2023-04-19T10:11:27.846Z,20.96
2023-04-19T10:16:31.192Z,21.01
2023-04-19T10:21:34.412Z,21.11
2023-04-19T10:27:14.151Z,21.22
2023-04-19T10:32:16.672Z,20.98
2023-04-19T10:37:23.656Z,21.24
2023-04-19T10:42:25.822Z,21.34
2023-04-19T10:47:46.373Z,21.51
2023-04-19T10:52:48.527Z,21.47
2023-04-19T10:58:04.389Z,21.75
2023-04-19T11:03:44.097Z,22.00
2023-04-19T11:08:47.522Z,22.08
2023-04-19T11:13:49.773Z,22.32
2023-04-19T11:18:52.131Z,21.84
2023-04-19T11:24:11.044Z,21.95
2023-04-19T11:29:13.806Z,21.81
2023-04-19T11:34:16.296Z,21.87
2023-04-19T11:39:20.090Z,21.62
2023-04-19T11:44:22.265Z,21.38
2023-04-19T11:49:33.092Z,21.14
2023-04-19T11:54:35.342Z,20.86
2023-04-19T11:59:37.562Z,20.91
2023-04-19T12:04:40.472Z,20.63
2023-04-19T12:09:42.734Z,20.10
2023-04-19T12:14:52.877Z,19.77
2023-04-19T12:19:55.206Z,19.33
2023-04-19T12:24:58.081Z,19.21
2023-04-19T12:30:00.280Z,19.15
2023-04-19T12:35:02.499Z,19.11
2023-04-19T12:40:05.670Z,18.92
2023-04-19T12:45:08.461Z,18.74
2023-04-19T12:50:11.109Z,19.02
2023-04-19T12:55:13.530Z,19.08
2023-04-19T13:00:15.979Z,18.98
2023-04-19T13:05:19.216Z,19.08
2023-04-19T13:10:21.588Z,18.96
2023-04-19T13:15:23.801Z,19.11
2023-04-19T13:20:26.073Z,18.96
2023-04-19T13:25:28.493Z,18.92
2023-04-19T13:30:31.070Z,18.94
2023-04-19T13:35:33.316Z,18.97
2023-04-19T13:40:35.616Z,18.95
2023-04-19T13:45:37.958Z,19.17
2023-04-19T13:50:40.372Z,19.01
2023-04-19T13:55:42.671Z,18.51
2023-04-19T14:00:45.170Z,18.52
2023-04-19T14:05:47.481Z,18.74
2023-04-19T14:10:51.440Z,18.47
2023-04-19T14:15:53.803Z,18.51
2023-04-19T14:20:56.328Z,18.63
2023-04-19T14:25:58.507Z,18.11
2023-04-19T14:31:02.968Z,18.43
2023-04-19T14:36:05.250Z,18.68
2023-04-19T14:41:07.810Z,18.43
2023-04-19T14:46:10.142Z,18.40
2023-04-19T14:51:12.409Z,17.89
2023-04-19T14:56:14.598Z,17.86
2023-04-19T15:01:16.804Z,17.72
2023-04-19T15:06:19.059Z,17.49
2023-04-19T15:11:21.458Z,17.62
2023-04-19T15:16:23.657Z,17.72
2023-04-19T15:21:26.180Z,17.59
2023-04-19T15:26:29.300Z,16.70
2023-04-19T15:31:32.767Z,17.11
2023-04-19T15:36:35.030Z,17.27
2023-04-19T15:41:37.286Z,17.37
2023-04-19T15:46:39.562Z,17.15
2023-04-19T15:51:41.825Z,16.69
2023-04-19T15:56:44.145Z,16.90
2023-04-19T16:01:46.371Z,17.70
2023-04-19T16:06:48.650Z,17.50
2023-04-19T16:11:51.081Z,17.18
2023-04-19T16:16:54.164Z,17.36
2023-04-19T16:21:57.213Z,18.86
2023-04-19T16:26:59.440Z,20.10
2023-04-19T16:32:01.856Z,18.77
2023-04-19T16:37:04.189Z,17.85
2023-04-19T16:42:06.530Z,17.95
2023-04-19T16:47:08.802Z,17.90
2023-04-19T16:52:11.058Z,17.66
2023-04-19T16:57:13.284Z,17.91
2023-04-19T17:02:15.879Z,17.86
2023-04-19T17:07:18.253Z,17.83
2023-04-19T17:12:20.525Z,17.67
2023-04-19T17:17:22.780Z,17.04
2023-04-19T17:22:25.032Z,17.07
2023-04-19T17:27:27.320Z,17.11
2023-04-19T17:32:29.556Z,17.22
2023-04-19T17:37:31.974Z,17.06
2023-04-19T17:42:34.133Z,16.90
2023-04-19T17:47:36.379Z,16.99
2023-04-19T17:52:39.642Z,17.06
2023-04-19T17:57:41.929Z,16.75
2023-04-19T18:02:44.224Z,16.59
2023-04-19T18:07:47.047Z,16.95
2023-04-19T18:12:49.310Z,16.88
2023-04-19T18:17:51.572Z,16.99
2023-04-19T18:22:54.078Z,16.99
2023-04-19T18:27:56.389Z,16.96
2023-04-19T18:32:59.284Z,17.03
2023-04-19T18:38:02.078Z,16.98
2023-04-19T18:43:04.320Z,16.96
2023-04-19T18:48:06.719Z,17.02
2023-04-19T18:53:08.892Z,16.91
2023-04-19T18:58:12.330Z,16.84
2023-04-19T19:03:33.878Z,16.79
2023-04-19T19:08:36.869Z,16.72
2023-04-19T19:13:39.847Z,16.69
2023-04-19T19:18:42.054Z,16.34
2023-04-19T19:23:44.280Z,16.30
2023-04-19T19:28:47.365Z,16.17
2023-04-19T19:33:53.541Z,15.99
2023-04-19T19:39:00.463Z,15.76
2023-04-19T19:44:03.105Z,15.83
2023-04-19T19:49:06.548Z,16.04
2023-04-19T19:54:10.067Z,16.25
2023-04-19T19:59:14.076Z,15.91
2023-04-19T20:04:16.662Z,15.62
2023-04-19T20:09:19.236Z,14.87
2023-04-19T20:14:25.467Z,14.74
2023-04-19T20:19:27.945Z,14.95
2023-04-19T20:24:31.220Z,14.34
2023-04-19T20:29:33.472Z,14.65
2023-04-19T20:34:35.776Z,15.06
2023-04-19T20:39:38.129Z,15.38
2023-04-19T20:44:40.750Z,15.78
2023-04-19T20:49:42.923Z,15.86
2023-04-19T20:54:45.184Z,16.00
2023-04-19T20:59:49.370Z,16.05
2023-04-19T21:04:51.655Z,16.06
2023-04-19T21:09:53.849Z,15.97
2023-04-19T21:14:56.105Z,15.67
2023-04-19T21:19:58.244Z,15.50
2023-04-19T21:25:00.443Z,15.67
2023-04-19T21:30:06.549Z,15.66
2023-04-19T21:35:09.137Z,15.85
2023-04-19T21:40:11.742Z,15.73
2023-04-19T21:45:13.934Z,15.61
2023-04-19T21:50:16.264Z,15.78
2023-04-19T21:55:19.033Z,16.07
2023-04-19T22:00:21.221Z,16.02
2023-04-19T22:05:23.471Z,16.11
2023-04-19T22:10:26.250Z,16.02
2023-04-19T22:15:29.028Z,15.97
2023-04-19T22:20:32.626Z,15.96
2023-04-19T22:25:34.979Z,15.83
2023-04-19T22:30:37.935Z,15.64
2023-04-19T22:35:40.145Z,15.65
2023-04-19T22:40:42.646Z,15.62
2023-04-19T22:45:48.380Z,15.62
2023-04-19T22:50:52.933Z,15.59
2023-04-19T22:55:55.220Z,15.67
2023-04-19T23:00:57.510Z,15.71
2023-04-19T23:06:00.963Z,15.61
2023-04-19T23:11:05.346Z,15.56
2023-04-19T23:16:11.401Z,15.49
2023-04-19T23:21:13.650Z,14.98
2023-04-19T23:26:16.035Z,15.03
2023-04-19T23:31:18.363Z,15.06
2023-04-19T23:36:20.830Z,14.91
2023-04-19T23:41:23.072Z,15.21
2023-04-19T23:46:25.448Z,15.00
2023-04-19T23:51:28.324Z,14.95
2023-04-19T23:56:30.912Z,14.38
